Herborn, Illinois
Current Conditions -  °F | °C
As of 11:53 AM on Friday 28 Nov 2014 (Local Time) from KMTO Reporting Station
Clear Clear  
Wind Chill: 22°   Ceiling: Unl
Heat Index: 33°   Visibility: 10mi
Dew Point: 26°   Wind: 17mph
Humidity: 75%   Direction: 170°S
Pressure: 30.15"   Gusts: 31mph
Location:  39.3879°N, 88.6432°W
Report Text: KMTO 281753Z AUTO 17015G27KT 10SM CLR 01/M03 A3015 RMK AO2 PK WND 17027/1745 SLP219 T00061033 10011 21067 58041
Loading
Personal Weather Stations






























Interactive Weather Map New forecast layout! Learn more

10-Day Weather Forecast

Advertisements
Track Severe Weather on mobile